createdAt,value
2023-03-29T00:00:27.727Z,6.66
2023-03-29T00:01:35.202Z,6.66
2023-03-29T00:02:27.982Z,6.63
2023-03-29T00:03:28.209Z,6.61
2023-03-29T00:04:28.139Z,6.62
2023-03-29T00:05:28.161Z,6.61
2023-03-29T00:06:28.227Z,6.62
2023-03-29T00:07:28.284Z,6.62
2023-03-29T00:08:28.357Z,6.62
2023-03-29T00:09:28.493Z,6.62
2023-03-29T00:10:28.533Z,6.63
2023-03-29T00:11:28.658Z,6.61
2023-03-29T00:12:28.691Z,6.62
2023-03-29T00:13:28.755Z,6.61
2023-03-29T00:14:28.858Z,6.61
2023-03-29T00:15:28.912Z,6.61
2023-03-29T00:16:29.010Z,6.61
2023-03-29T00:17:29.100Z,6.61
2023-03-29T00:18:29.133Z,6.61
2023-03-29T00:19:29.266Z,6.61
2023-03-29T00:20:29.318Z,6.59
2023-03-29T00:21:29.395Z,6.59
2023-03-29T00:22:29.481Z,6.59
2023-03-29T00:23:29.591Z,6.58
2023-03-29T00:24:29.675Z,6.58
2023-03-29T00:25:29.707Z,6.56
2023-03-29T00:26:29.776Z,6.54
2023-03-29T00:27:29.892Z,6.56
2023-03-29T00:28:29.962Z,6.53
2023-03-29T00:29:30.042Z,6.51
2023-03-29T00:30:30.103Z,6.51
2023-03-29T00:31:30.227Z,6.50
2023-03-29T00:32:30.301Z,6.51
2023-03-29T00:33:30.389Z,6.50
2023-03-29T00:34:30.459Z,6.48
2023-03-29T00:35:30.585Z,6.48
2023-03-29T00:36:30.605Z,6.47
2023-03-29T00:37:30.705Z,6.46
2023-03-29T00:38:30.776Z,6.47
2023-03-29T00:39:30.911Z,6.44
2023-03-29T00:40:30.948Z,6.44
2023-03-29T00:41:31.006Z,6.46
2023-03-29T00:42:31.101Z,6.43
2023-03-29T00:43:31.213Z,6.44
2023-03-29T00:44:31.327Z,6.41
2023-03-29T00:45:31.342Z,6.41
2023-03-29T00:46:31.520Z,6.40
2023-03-29T00:47:31.540Z,6.40
2023-03-29T00:48:31.566Z,6.38
2023-03-29T00:49:31.695Z,6.38
2023-03-29T00:50:31.750Z,6.38
2023-03-29T00:51:31.861Z,6.36
2023-03-29T00:52:31.906Z,6.35
2023-03-29T00:53:32.014Z,6.35
2023-03-29T00:54:32.100Z,6.32
2023-03-29T00:55:32.183Z,6.32
2023-03-29T00:56:32.252Z,6.30
2023-03-29T00:57:32.366Z,6.29
2023-03-29T00:58:32.423Z,6.29
2023-03-29T00:59:32.539Z,6.29
2023-03-29T01:00:32.554Z,6.26
2023-03-29T01:01:32.687Z,6.22
2023-03-29T01:04:00.542Z,6.07
2023-03-29T01:04:58.978Z,6.00
2023-03-29T01:12:27.611Z,5.50
2023-03-29T01:13:37.712Z,5.48
2023-03-29T01:20:57.158Z,5.31
2023-03-29T01:30:56.545Z,5.23
2023-03-29T01:31:57.549Z,5.25
2023-03-29T01:48:00.069Z,5.05
2023-03-29T01:49:00.970Z,5.09
2023-03-29T01:50:01.083Z,5.12
2023-03-29T01:51:01.475Z,5.17
2023-03-29T01:52:01.281Z,5.22
2023-03-29T01:53:01.313Z,5.27
2023-03-29T01:54:01.364Z,5.32
2023-03-29T01:55:01.433Z,5.37
2023-03-29T01:56:01.542Z,5.40
2023-03-29T01:57:01.706Z,5.45
2023-03-29T01:58:01.690Z,5.50
2023-03-29T01:59:01.760Z,5.55
2023-03-29T02:00:01.834Z,5.56
2023-03-29T02:01:02.129Z,5.59
2023-03-29T02:02:01.986Z,5.63
2023-03-29T02:03:02.154Z,5.66
2023-03-29T02:04:02.192Z,5.68
2023-03-29T02:05:02.270Z,5.71
2023-03-29T02:06:02.342Z,5.73
2023-03-29T02:07:02.390Z,5.75
2023-03-29T02:08:02.527Z,5.77
2023-03-29T02:09:02.534Z,5.81
2023-03-29T02:10:02.644Z,5.82
2023-03-29T02:11:02.885Z,5.85
2023-03-29T02:12:02.801Z,5.86
2023-03-29T02:13:02.873Z,5.89
2023-03-29T02:14:02.924Z,5.91
2023-03-29T02:15:02.998Z,5.93
2023-03-29T02:16:03.153Z,5.95
2023-03-29T02:17:03.172Z,5.96
2023-03-29T02:18:03.317Z,5.98
2023-03-29T02:19:03.372Z,6.00
2023-03-29T02:20:03.473Z,6.03
2023-03-29T02:21:03.850Z,6.04
2023-03-29T02:22:03.588Z,6.06
2023-03-29T02:23:03.663Z,6.09
2023-03-29T02:24:03.728Z,6.11
2023-03-29T02:25:03.805Z,6.13
2023-03-29T02:26:03.876Z,6.16
2023-03-29T02:27:03.945Z,6.19
2023-03-29T02:28:04.055Z,6.21
2023-03-29T02:29:04.135Z,6.22
2023-03-29T02:30:04.203Z,6.26
2023-03-29T02:31:04.578Z,6.29
2023-03-29T02:32:04.323Z,6.29
2023-03-29T02:33:04.510Z,6.33
2023-03-29T02:34:04.497Z,6.36
2023-03-29T02:35:04.605Z,6.38
2023-03-29T02:36:04.755Z,6.41
2023-03-29T02:37:04.766Z,6.44
2023-03-29T02:38:04.884Z,6.48
2023-03-29T02:39:04.948Z,6.50
2023-03-29T02:40:05.019Z,6.53
2023-03-29T02:41:05.074Z,6.54
2023-03-29T02:42:05.184Z,6.61
2023-03-29T02:43:05.270Z,6.63
2023-03-29T02:44:05.346Z,6.65
2023-03-29T02:45:05.403Z,6.66
2023-03-29T02:46:05.535Z,6.66
2023-03-29T02:47:05.577Z,6.68
2023-03-29T02:48:05.742Z,6.69
2023-03-29T02:49:05.749Z,6.69
2023-03-29T02:50:05.840Z,6.69
2023-03-29T02:51:05.890Z,6.71
2023-03-29T02:52:06.000Z,6.71
2023-03-29T02:53:06.085Z,6.69
2023-03-29T02:54:06.158Z,6.71
2023-03-29T02:55:06.219Z,6.71
2023-03-29T02:56:06.300Z,6.69
2023-03-29T02:57:06.537Z,6.71
2023-03-29T02:58:06.517Z,6.71
2023-03-29T02:59:06.592Z,6.69
2023-03-29T03:00:06.648Z,6.68
2023-03-29T03:01:06.720Z,6.68
2023-03-29T03:02:06.864Z,6.66
2023-03-29T03:03:06.976Z,6.66
2023-03-29T03:04:07.041Z,6.65
2023-03-29T03:05:07.064Z,6.65
2023-03-29T03:06:07.171Z,6.66
2023-03-29T03:07:07.233Z,6.66
2023-03-29T03:08:07.352Z,6.65
2023-03-29T03:09:07.396Z,6.65
2023-03-29T03:10:07.449Z,6.63
2023-03-29T03:11:07.546Z,6.62
2023-03-29T03:12:07.673Z,6.62
2023-03-29T03:13:07.733Z,6.61
2023-03-29T03:14:07.796Z,6.62
2023-03-29T03:15:07.862Z,6.59
2023-03-29T03:16:07.982Z,6.61
2023-03-29T03:17:08.025Z,6.59
2023-03-29T03:18:08.210Z,6.58
2023-03-29T03:19:08.209Z,6.58
2023-03-29T03:20:08.324Z,6.54
2023-03-29T03:21:08.404Z,6.54
2023-03-29T03:22:08.491Z,6.56
2023-03-29T03:23:08.543Z,6.53
2023-03-29T03:24:08.673Z,6.51
2023-03-29T03:25:08.739Z,6.51
2023-03-29T03:26:08.824Z,6.50
2023-03-29T03:27:08.873Z,6.51
2023-03-29T03:28:08.982Z,6.50
2023-03-29T03:29:09.062Z,6.51
2023-03-29T03:30:09.128Z,6.50
2023-03-29T03:31:09.285Z,6.48
2023-03-29T03:32:09.324Z,6.48
2023-03-29T03:33:09.357Z,6.48
2023-03-29T03:34:09.455Z,6.47
2023-03-29T03:35:09.500Z,6.48
2023-03-29T03:36:09.651Z,6.47
2023-03-29T03:37:09.690Z,6.47
2023-03-29T03:38:09.792Z,6.47
2023-03-29T03:39:09.877Z,6.47
2023-03-29T03:40:09.944Z,6.47
2023-03-29T03:41:09.980Z,6.47
2023-03-29T03:42:10.094Z,6.47
2023-03-29T03:43:10.154Z,6.46
2023-03-29T03:44:10.291Z,6.46
2023-03-29T03:45:10.320Z,6.47
2023-03-29T03:46:10.464Z,6.47
2023-03-29T03:47:10.463Z,6.46
2023-03-29T03:48:10.612Z,6.46
2023-03-29T03:49:10.652Z,6.44
2023-03-29T03:50:10.715Z,6.44
2023-03-29T03:51:10.792Z,6.46
2023-03-29T03:52:10.850Z,6.46
2023-03-29T03:53:10.965Z,6.46
2023-03-29T03:54:11.063Z,6.47
2023-03-29T03:55:11.223Z,6.46
2023-03-29T03:56:11.224Z,6.46
2023-03-29T03:57:11.353Z,6.48
2023-03-29T03:58:11.405Z,6.48
2023-03-29T03:59:11.483Z,6.50
2023-03-29T04:00:11.602Z,6.50
2023-03-29T04:01:11.621Z,6.50
2023-03-29T04:02:11.747Z,6.48
2023-03-29T04:03:11.864Z,6.50
2023-03-29T04:04:11.983Z,6.50
2023-03-29T04:05:11.925Z,6.51
2023-03-29T04:06:12.024Z,6.51
2023-03-29T04:07:12.071Z,6.51
2023-03-29T04:08:12.191Z,6.50
2023-03-29T04:09:12.266Z,6.53
2023-03-29T04:10:12.327Z,6.53
2023-03-29T04:11:12.397Z,6.51
2023-03-29T04:12:12.485Z,6.51
2023-03-29T04:13:12.597Z,6.53
2023-03-29T04:14:12.676Z,6.51
2023-03-29T04:15:12.739Z,6.51
2023-03-29T04:16:12.928Z,6.51
2023-03-29T04:17:12.935Z,6.50
2023-03-29T04:18:13.230Z,6.51
2023-03-29T04:19:13.177Z,6.54
2023-03-29T04:20:13.197Z,6.53
2023-03-29T04:21:13.263Z,6.53
2023-03-29T04:22:13.342Z,6.53
2023-03-29T04:23:13.400Z,6.54
2023-03-29T04:24:13.488Z,6.54
2023-03-29T04:25:13.580Z,6.54
2023-03-29T04:26:13.646Z,6.54
2023-03-29T04:27:13.780Z,6.54
2023-03-29T04:28:13.857Z,6.56
2023-03-29T04:29:13.966Z,6.56
2023-03-29T04:30:14.009Z,6.53
2023-03-29T04:31:14.124Z,6.54
2023-03-29T04:32:14.175Z,6.54
2023-03-29T04:33:14.294Z,6.58
2023-03-29T04:34:14.364Z,6.58
2023-03-29T04:35:14.427Z,6.54
2023-03-29T04:36:14.511Z,6.56
2023-03-29T04:37:14.533Z,6.56
2023-03-29T04:38:14.616Z,6.58
2023-03-29T04:39:14.710Z,6.59
2023-03-29T04:40:14.758Z,6.59
2023-03-29T04:41:14.806Z,6.59
2023-03-29T04:51:01.833Z,6.21
2023-03-29T04:59:16.166Z,6.01
2023-03-29T05:04:12.774Z,6.00
2023-03-29T05:40:56.326Z,5.95
2023-03-29T05:42:09.430Z,5.98
2023-03-29T05:42:54.580Z,6.01
2023-03-29T05:46:36.030Z,6.09
2023-03-29T05:49:20.030Z,6.10
2023-03-29T05:58:05.629Z,5.98
2023-03-29T05:59:04.925Z,5.98
2023-03-29T06:00:04.779Z,6.01
2023-03-29T06:01:05.490Z,6.07
2023-03-29T06:02:05.096Z,6.13
2023-03-29T06:04:07.052Z,6.21
2023-03-29T06:05:08.028Z,6.26
2023-03-29T06:06:08.783Z,6.29
2023-03-29T06:07:08.102Z,6.30
2023-03-29T06:08:08.300Z,6.36
2023-03-29T06:09:08.360Z,6.40
2023-03-29T06:10:08.323Z,6.43
2023-03-29T06:11:09.535Z,6.47
2023-03-29T06:12:08.478Z,6.48
2023-03-29T06:13:08.590Z,6.53
2023-03-29T06:14:10.066Z,6.54
2023-03-29T06:18:29.383Z,6.53
2023-03-29T06:19:27.355Z,6.51
2023-03-29T06:20:26.562Z,6.48
2023-03-29T06:38:25.929Z,6.16
2023-03-29T06:39:06.305Z,6.16
2023-03-29T06:57:21.052Z,6.19
2023-03-29T07:07:43.769Z,6.36
2023-03-29T07:11:52.604Z,6.38
2023-03-29T07:12:53.465Z,6.43
2023-03-29T07:13:53.606Z,6.48
2023-03-29T07:15:01.474Z,6.54
2023-03-29T07:15:53.750Z,6.63
2023-03-29T07:16:56.475Z,6.69
2023-03-29T07:17:53.774Z,6.76
2023-03-29T07:22:14.457Z,6.86
2023-03-29T07:23:15.675Z,6.83
2023-03-29T07:24:15.605Z,6.86
2023-03-29T07:25:15.699Z,6.89
2023-03-29T07:26:15.780Z,6.91
2023-03-29T07:27:15.821Z,6.97
2023-03-29T07:28:15.934Z,7.01
2023-03-29T07:29:15.986Z,7.04
2023-03-29T07:30:16.065Z,7.07
2023-03-29T07:31:16.143Z,7.09
2023-03-29T07:32:16.225Z,7.12
2023-03-29T07:33:16.459Z,7.15
2023-03-29T07:34:16.342Z,7.17
2023-03-29T07:35:16.452Z,7.19
2023-03-29T07:36:16.572Z,7.22
2023-03-29T07:37:16.604Z,7.22
2023-03-29T07:38:16.686Z,7.23
2023-03-29T07:39:16.746Z,7.26
2023-03-29T07:40:16.863Z,7.26
2023-03-29T07:41:16.944Z,7.29
2023-03-29T07:42:17.014Z,7.31
2023-03-29T07:43:17.100Z,7.32
2023-03-29T07:44:17.155Z,7.34
2023-03-29T07:45:17.304Z,7.34
2023-03-29T07:46:17.429Z,7.37
2023-03-29T07:47:17.442Z,7.37
2023-03-29T07:48:17.604Z,7.38
2023-03-29T07:49:18.431Z,7.38
2023-03-29T07:50:17.684Z,7.37
2023-03-29T07:51:17.750Z,7.40
2023-03-29T07:52:17.795Z,7.40
2023-03-29T07:53:17.942Z,7.40
2023-03-29T07:54:17.991Z,7.41
2023-03-29T07:55:18.068Z,7.42
2023-03-29T07:56:18.135Z,7.44
2023-03-29T07:57:18.280Z,7.45
2023-03-29T07:58:18.312Z,7.44
2023-03-29T07:59:18.396Z,7.47
2023-03-29T08:00:18.513Z,7.49
2023-03-29T08:01:19.702Z,7.49
2023-03-29T08:02:18.648Z,7.52
2023-03-29T08:03:19.063Z,7.53
2023-03-29T08:04:18.894Z,7.53
2023-03-29T08:05:26.080Z,7.55
2023-03-29T08:06:18.958Z,7.55
2023-03-29T08:07:19.286Z,7.56
2023-03-29T08:08:19.119Z,7.59
2023-03-29T08:09:19.211Z,7.59
2023-03-29T08:10:19.277Z,7.62
2023-03-29T08:11:19.342Z,7.60
2023-03-29T08:12:19.412Z,7.62
2023-03-29T08:13:19.547Z,7.60
2023-03-29T08:14:19.565Z,7.62
2023-03-29T08:15:19.682Z,7.66
2023-03-29T08:16:19.781Z,7.66
2023-03-29T08:17:19.979Z,7.71
2023-03-29T08:18:19.956Z,7.74
2023-03-29T08:19:20.048Z,7.75
2023-03-29T08:20:20.145Z,7.77
2023-03-29T08:21:20.216Z,7.77
2023-03-29T08:22:20.278Z,7.77
2023-03-29T08:23:20.440Z,7.78
2023-03-29T08:24:21.148Z,7.79
2023-03-29T08:25:20.544Z,7.82
2023-03-29T08:26:20.648Z,7.84
2023-03-29T08:27:20.689Z,7.89
2023-03-29T08:28:20.758Z,7.92
2023-03-29T08:29:20.797Z,7.94
2023-03-29T08:30:20.952Z,7.97
2023-03-29T08:31:21.083Z,8.02
2023-03-29T08:32:21.136Z,8.03
2023-03-29T08:33:21.222Z,8.07
2023-03-29T08:34:21.218Z,8.08
2023-03-29T08:35:21.389Z,8.11
2023-03-29T08:36:21.433Z,8.14
2023-03-29T08:37:21.486Z,8.17
2023-03-29T08:38:21.613Z,8.21
2023-03-29T08:39:21.666Z,8.22
2023-03-29T08:40:22.050Z,8.26
2023-03-29T08:41:21.857Z,8.28
2023-03-29T08:42:21.910Z,8.29
2023-03-29T08:43:22.077Z,8.32
2023-03-29T08:44:22.101Z,8.33
2023-03-29T08:45:22.220Z,8.33
2023-03-29T08:46:22.331Z,8.35
2023-03-29T08:47:22.422Z,8.33
2023-03-29T08:48:22.526Z,8.35
2023-03-29T08:49:22.585Z,8.35
2023-03-29T08:50:22.643Z,8.36
2023-03-29T08:51:22.718Z,8.36
2023-03-29T08:52:22.813Z,8.39
2023-03-29T08:53:22.941Z,8.37
2023-03-29T08:54:22.951Z,8.37
2023-03-29T08:55:23.049Z,8.37
2023-03-29T08:56:23.138Z,8.40
2023-03-29T08:57:23.251Z,8.40
2023-03-29T08:58:23.314Z,8.42
2023-03-29T08:59:23.379Z,8.42
2023-03-29T09:00:23.503Z,8.40
2023-03-29T09:01:23.596Z,8.44
2023-03-29T09:02:23.820Z,8.44
2023-03-29T09:03:23.911Z,8.45
2023-03-29T09:04:23.828Z,8.45
2023-03-29T09:05:23.897Z,8.47
2023-03-29T09:06:23.989Z,8.47
2023-03-29T09:07:26.414Z,8.50
2023-03-29T09:08:24.197Z,8.51
2023-03-29T09:09:24.218Z,8.53
2023-03-29T09:10:24.312Z,8.55
2023-03-29T09:11:24.443Z,8.55
2023-03-29T09:12:24.430Z,8.58
2023-03-29T09:13:24.584Z,8.58
2023-03-29T09:14:24.589Z,8.58
2023-03-29T09:15:24.676Z,8.62
2023-03-29T09:16:24.813Z,8.65
2023-03-29T09:17:24.901Z,8.65
2023-03-29T09:18:25.026Z,8.65
2023-03-29T09:19:25.046Z,8.65
2023-03-29T09:20:25.120Z,8.66
2023-03-29T09:21:25.225Z,8.68
2023-03-29T09:22:25.280Z,8.68
2023-03-29T09:23:25.441Z,8.68
2023-03-29T09:24:25.455Z,8.69
2023-03-29T09:25:25.572Z,8.71
2023-03-29T09:26:25.654Z,8.72
2023-03-29T09:27:25.773Z,8.73
2023-03-29T09:28:25.868Z,8.72
2023-03-29T09:29:25.945Z,8.72
2023-03-29T09:30:26.031Z,8.71
2023-03-29T09:31:26.217Z,8.72
2023-03-29T09:32:26.162Z,8.75
2023-03-29T09:33:26.305Z,8.78
2023-03-29T09:34:26.322Z,8.79
2023-03-29T09:35:26.396Z,8.81
2023-03-29T09:36:26.476Z,8.84
2023-03-29T09:37:26.557Z,8.87
2023-03-29T09:38:26.677Z,8.86
2023-03-29T09:39:26.769Z,8.88
2023-03-29T09:40:26.830Z,8.88
2023-03-29T09:41:26.953Z,8.90
2023-03-29T09:42:27.043Z,8.90
2023-03-29T09:43:27.187Z,8.90
2023-03-29T09:44:31.341Z,8.90
2023-03-29T09:45:27.307Z,8.94
2023-03-29T09:46:27.375Z,8.94
2023-03-29T09:47:27.483Z,8.97
2023-03-29T09:48:27.537Z,8.96
2023-03-29T09:49:27.599Z,8.97
2023-03-29T09:50:31.049Z,8.97
2023-03-29T09:51:27.826Z,8.97
2023-03-29T09:52:27.860Z,8.96
2023-03-29T09:53:27.992Z,8.96
2023-03-29T09:54:28.003Z,8.99
2023-03-29T09:55:28.106Z,8.99
2023-03-29T09:56:28.151Z,9.01
2023-03-29T09:57:28.327Z,9.04
2023-03-29T09:58:28.361Z,9.06
2023-03-29T09:59:28.423Z,9.15
2023-03-29T10:00:28.538Z,9.20
2023-03-29T10:01:28.656Z,9.24
2023-03-29T10:02:28.684Z,9.25
2023-03-29T10:03:28.786Z,9.31
2023-03-29T10:04:28.886Z,9.35
2023-03-29T10:05:28.904Z,9.38
2023-03-29T10:06:29.032Z,9.40
2023-03-29T10:07:29.132Z,9.45
2023-03-29T10:08:29.222Z,9.48
2023-03-29T10:09:29.289Z,9.48
2023-03-29T10:10:29.337Z,9.49
2023-03-29T10:11:29.444Z,9.49
2023-03-29T10:12:29.552Z,9.49
2023-03-29T10:13:29.673Z,9.49
2023-03-29T10:14:29.735Z,9.49
2023-03-29T10:15:30.589Z,9.52
2023-03-29T10:16:30.016Z,9.53
2023-03-29T10:17:30.106Z,9.57
2023-03-29T10:18:30.125Z,9.58
2023-03-29T10:19:30.396Z,9.63
2023-03-29T10:23:48.934Z,9.58
2023-03-29T10:24:50.027Z,9.58
2023-03-29T10:25:50.106Z,9.60
2023-03-29T10:27:02.606Z,9.61
2023-03-29T10:41:48.572Z,9.28
2023-03-29T10:44:38.460Z,9.31
2023-03-29T10:45:39.498Z,9.32
2023-03-29T10:46:39.569Z,9.40
2023-03-29T10:47:39.625Z,9.48
2023-03-29T10:48:39.710Z,9.58
2023-03-29T10:51:43.643Z,9.76
2023-03-29T10:52:44.218Z,9.79
2023-03-29T10:53:44.354Z,9.81
2023-03-29T10:54:44.400Z,9.85
2023-03-29T10:55:44.504Z,9.91
2023-03-29T10:56:44.684Z,9.97
2023-03-29T10:57:44.668Z,10.03
2023-03-29T10:58:44.753Z,10.09
2023-03-29T10:59:44.810Z,10.14
2023-03-29T11:00:44.928Z,10.19
2023-03-29T11:01:45.018Z,10.22
2023-03-29T11:02:46.332Z,10.28
2023-03-29T11:03:54.050Z,10.32
2023-03-29T11:04:45.276Z,10.33
2023-03-29T11:05:45.352Z,10.37
2023-03-29T11:06:45.430Z,10.43
2023-03-29T11:07:45.552Z,10.47
2023-03-29T11:08:45.588Z,10.52
2023-03-29T11:09:45.660Z,10.58
2023-03-29T11:14:28.734Z,10.55
2023-03-29T11:17:05.899Z,10.44
2023-03-29T11:18:06.973Z,10.44
2023-03-29T11:19:07.141Z,10.47
2023-03-29T11:20:07.049Z,10.53
2023-03-29T11:21:10.655Z,10.58
2023-03-29T11:22:07.346Z,10.62
2023-03-29T11:23:07.349Z,10.70
2023-03-29T11:24:07.426Z,10.74
2023-03-29T11:25:07.517Z,10.80
2023-03-29T11:26:07.598Z,10.88
2023-03-29T11:27:07.718Z,10.95
2023-03-29T11:28:07.793Z,11.02
2023-03-29T11:29:07.888Z,11.13
2023-03-29T11:30:07.973Z,11.17
2023-03-29T11:31:08.049Z,11.25
2023-03-29T11:32:08.137Z,11.28
2023-03-29T11:33:08.243Z,11.29
2023-03-29T11:34:08.398Z,11.35
2023-03-29T11:35:08.402Z,11.38
2023-03-29T11:36:08.502Z,11.38
2023-03-29T11:37:08.627Z,11.41
2023-03-29T11:38:08.621Z,11.46
2023-03-29T11:39:08.694Z,11.50
2023-03-29T11:40:08.779Z,11.56
2023-03-29T11:41:08.990Z,11.59
2023-03-29T11:42:09.000Z,11.62
2023-03-29T11:43:09.118Z,11.67
2023-03-29T11:44:09.167Z,11.71
2023-03-29T11:45:09.262Z,11.74
2023-03-29T11:46:09.371Z,11.77
2023-03-29T11:47:09.465Z,11.80
2023-03-29T11:48:09.621Z,11.83
2023-03-29T11:49:09.572Z,11.85
2023-03-29T11:50:09.726Z,11.87
2023-03-29T11:51:09.747Z,11.93
2023-03-29T11:52:10.938Z,11.94
2023-03-29T11:56:46.898Z,11.90
2023-03-29T11:57:48.009Z,11.90
2023-03-29T11:58:47.951Z,11.90
2023-03-29T12:08:42.530Z,11.68
2023-03-29T12:09:43.584Z,11.70
2023-03-29T12:10:43.527Z,11.71
2023-03-29T12:13:10.504Z,11.78
2023-03-29T12:14:04.464Z,11.82
2023-03-29T12:16:36.295Z,11.86
2023-03-29T12:17:37.247Z,11.87
2023-03-29T13:18:03.209Z,10.96
2023-03-29T13:19:03.971Z,11.03
2023-03-29T13:20:04.036Z,11.16
2023-03-29T13:21:04.099Z,11.27
2023-03-29T13:22:04.216Z,11.38
2023-03-29T13:23:04.248Z,11.50
2023-03-29T13:24:04.359Z,11.62
2023-03-29T13:25:04.482Z,11.72
2023-03-29T13:26:04.746Z,11.82
2023-03-29T13:27:04.588Z,11.89
2023-03-29T13:28:04.616Z,11.97
2023-03-29T13:29:04.736Z,12.04
2023-03-29T13:30:04.832Z,12.11
2023-03-29T13:31:04.948Z,12.16
2023-03-29T13:32:05.016Z,12.20
2023-03-29T13:43:02.522Z,12.08
2023-03-29T13:44:03.590Z,12.08
2023-03-29T13:45:03.635Z,12.09
2023-03-29T13:46:04.025Z,12.11
2023-03-29T13:47:03.827Z,12.12
2023-03-29T13:48:05.728Z,12.16
2023-03-29T13:49:03.959Z,12.21
2023-03-29T13:50:04.057Z,12.27
2023-03-29T13:51:04.051Z,12.37
2023-03-29T13:52:04.136Z,12.44
2023-03-29T13:53:04.357Z,12.49
2023-03-29T13:54:04.294Z,12.57
2023-03-29T13:55:04.381Z,12.59
2023-03-29T13:56:04.610Z,12.62
2023-03-29T13:57:04.565Z,12.63
2023-03-29T13:58:04.635Z,12.66
2023-03-29T13:59:04.666Z,12.69
2023-03-29T14:00:04.759Z,12.70
2023-03-29T14:01:04.896Z,12.69
2023-03-29T14:02:04.918Z,12.70
2023-03-29T14:03:05.043Z,12.69
2023-03-29T14:04:05.055Z,12.70
2023-03-29T14:05:05.107Z,12.70
2023-03-29T14:06:05.413Z,12.69
2023-03-29T14:07:05.312Z,12.70
2023-03-29T14:08:05.412Z,12.71
2023-03-29T14:09:05.489Z,12.71
2023-03-29T14:10:05.586Z,12.74
2023-03-29T14:11:05.707Z,12.78
2023-03-29T14:12:05.782Z,12.81
2023-03-29T14:13:05.888Z,12.85
2023-03-29T14:14:05.948Z,12.89
2023-03-29T14:15:06.034Z,12.93
2023-03-29T14:16:06.419Z,12.96
2023-03-29T14:17:06.292Z,12.97
2023-03-29T14:18:06.325Z,13.00
2023-03-29T14:19:06.438Z,13.02
2023-03-29T14:20:06.420Z,13.03
2023-03-29T14:21:06.509Z,13.06
2023-03-29T14:22:06.642Z,13.06
2023-03-29T14:23:06.748Z,13.07
2023-03-29T14:24:06.751Z,13.09
2023-03-29T14:25:06.828Z,13.06
2023-03-29T14:26:06.935Z,13.02
2023-03-29T14:27:06.996Z,12.99
2023-03-29T14:28:07.069Z,12.96
2023-03-29T14:29:07.179Z,12.93
2023-03-29T14:30:07.214Z,12.93
2023-03-29T14:31:07.277Z,12.89
2023-03-29T14:32:07.404Z,12.88
2023-03-29T14:33:07.555Z,12.85
2023-03-29T14:34:07.538Z,12.85
2023-03-29T14:35:07.634Z,12.84
2023-03-29T14:36:08.092Z,12.82
2023-03-29T14:37:07.848Z,12.81
2023-03-29T14:38:07.900Z,12.84
2023-03-29T14:39:07.973Z,12.82
2023-03-29T14:40:08.052Z,12.82
2023-03-29T14:41:08.169Z,12.81
2023-03-29T14:42:08.228Z,12.79
2023-03-29T14:43:08.336Z,12.78
2023-03-29T14:44:08.370Z,12.78
2023-03-29T14:45:08.464Z,12.77
2023-03-29T14:46:08.554Z,12.78
2023-03-29T14:47:08.611Z,12.78
2023-03-29T14:48:08.734Z,12.77
2023-03-29T14:49:08.832Z,12.75
2023-03-29T14:50:08.897Z,12.75
2023-03-29T14:51:09.029Z,12.74
2023-03-29T14:52:09.057Z,12.74
2023-03-29T14:53:09.164Z,12.75
2023-03-29T14:54:09.231Z,12.75
2023-03-29T14:55:09.275Z,12.77
2023-03-29T14:56:09.371Z,12.78
2023-03-29T14:57:09.551Z,12.78
2023-03-29T14:58:11.219Z,12.78
2023-03-29T14:59:09.641Z,12.79
2023-03-29T15:00:09.680Z,12.78
2023-03-29T15:01:09.820Z,12.78
2023-03-29T15:02:09.845Z,12.77
2023-03-29T15:03:10.022Z,12.77
2023-03-29T15:04:10.003Z,12.74
2023-03-29T15:05:10.105Z,12.74
2023-03-29T15:06:10.164Z,12.77
2023-03-29T15:07:10.280Z,12.79
2023-03-29T15:08:10.469Z,12.85
2023-03-29T15:09:10.454Z,12.89
2023-03-29T15:10:10.515Z,12.96
2023-03-29T15:11:10.586Z,13.00
2023-03-29T15:12:10.683Z,13.04
2023-03-29T15:13:10.763Z,13.11
2023-03-29T15:14:10.841Z,13.14
2023-03-29T15:15:10.941Z,13.17
2023-03-29T15:16:11.208Z,13.21
2023-03-29T15:17:11.083Z,13.27
2023-03-29T15:18:11.179Z,13.33
2023-03-29T15:19:11.250Z,13.38
2023-03-29T15:20:11.424Z,13.44
2023-03-29T15:21:11.404Z,13.47
2023-03-29T15:22:11.501Z,13.52
2023-03-29T15:23:11.528Z,13.54
2023-03-29T15:24:11.637Z,13.55
2023-03-29T15:25:11.730Z,13.55
2023-03-29T15:26:11.801Z,13.55
2023-03-29T15:27:11.873Z,13.54
2023-03-29T15:28:11.982Z,13.54
2023-03-29T15:29:12.043Z,13.52
2023-03-29T15:30:12.180Z,13.54
2023-03-29T15:31:12.347Z,13.55
2023-03-29T15:32:12.421Z,13.58
2023-03-29T15:33:12.519Z,13.59
2023-03-29T15:34:12.516Z,13.63
2023-03-29T15:35:12.589Z,13.70
2023-03-29T15:36:12.745Z,13.71
2023-03-29T15:37:12.833Z,13.79
2023-03-29T15:38:12.864Z,13.83
2023-03-29T15:39:12.944Z,13.87
2023-03-29T15:40:14.463Z,13.83
2023-03-29T15:41:13.104Z,13.87
2023-03-29T15:42:13.184Z,13.87
2023-03-29T15:43:13.247Z,13.87
2023-03-29T15:44:13.382Z,13.88
2023-03-29T15:45:13.468Z,13.91
2023-03-29T15:46:13.609Z,13.94
2023-03-29T15:47:13.632Z,13.98
2023-03-29T15:48:13.721Z,13.99
2023-03-29T15:49:13.773Z,14.04
2023-03-29T15:50:13.898Z,14.07
2023-03-29T15:51:13.935Z,14.12
2023-03-29T15:52:14.024Z,14.16
2023-03-29T15:53:15.818Z,14.17
2023-03-29T15:54:14.179Z,14.17
2023-03-29T15:55:14.290Z,14.17
2023-03-29T15:56:14.326Z,14.19
2023-03-29T15:57:14.434Z,14.19
2023-03-29T15:58:14.596Z,14.19
2023-03-29T15:59:14.568Z,14.17
2023-03-29T16:00:14.739Z,14.19
2023-03-29T16:01:14.797Z,14.20
2023-03-29T16:02:14.879Z,14.25
2023-03-29T16:03:15.003Z,14.27
2023-03-29T16:04:15.026Z,14.27
2023-03-29T16:05:15.122Z,14.29
2023-03-29T16:06:15.150Z,14.32
2023-03-29T16:07:15.232Z,14.35
2023-03-29T16:08:15.357Z,14.37
2023-03-29T16:09:15.430Z,14.38
2023-03-29T16:10:15.529Z,14.42
2023-03-29T16:11:15.580Z,14.44
2023-03-29T16:12:15.653Z,14.47
2023-03-29T16:13:15.848Z,14.50
2023-03-29T16:14:15.814Z,14.53
2023-03-29T16:15:15.893Z,14.53
2023-03-29T16:16:15.961Z,14.53
2023-03-29T16:17:16.077Z,14.49
2023-03-29T16:18:16.137Z,14.47
2023-03-29T16:19:16.219Z,14.44
2023-03-29T16:20:16.319Z,14.43
2023-03-29T16:21:16.363Z,14.43
2023-03-29T16:22:16.436Z,14.43
2023-03-29T16:23:16.511Z,14.44
2023-03-29T16:24:16.597Z,14.46
2023-03-29T16:25:16.676Z,14.47
2023-03-29T16:26:16.788Z,14.49
2023-03-29T16:27:16.825Z,14.49
2023-03-29T16:28:16.941Z,14.49
2023-03-29T16:29:17.317Z,14.49
2023-03-29T16:30:17.148Z,14.49
2023-03-29T16:31:17.169Z,14.50
2023-03-29T16:32:17.302Z,14.50
2023-03-29T16:33:17.416Z,14.50
2023-03-29T16:34:17.397Z,14.52
2023-03-29T16:35:17.497Z,14.52
2023-03-29T16:36:17.657Z,14.54
2023-03-29T16:37:17.605Z,14.57
2023-03-29T16:38:17.838Z,14.57
2023-03-29T16:39:17.825Z,14.60
2023-03-29T16:40:17.910Z,14.61
2023-03-29T16:41:17.981Z,14.61
2023-03-29T16:42:18.047Z,14.60
2023-03-29T16:43:18.130Z,14.57
2023-03-29T16:44:20.087Z,14.54
2023-03-29T16:45:18.347Z,14.52
2023-03-29T16:46:18.384Z,14.50
2023-03-29T16:47:18.513Z,14.49
2023-03-29T16:48:18.565Z,14.46
2023-03-29T16:49:18.648Z,14.43
2023-03-29T16:50:18.963Z,14.44
2023-03-29T16:51:18.810Z,14.43
2023-03-29T16:52:18.886Z,14.39
2023-03-29T16:53:18.980Z,14.39
2023-03-29T16:54:19.065Z,14.37
2023-03-29T16:55:19.219Z,14.37
2023-03-29T16:56:19.199Z,14.34
2023-03-29T16:57:19.308Z,14.32
2023-03-29T16:58:19.380Z,14.34
2023-03-29T16:59:19.466Z,14.29
2023-03-29T17:00:19.626Z,14.27
2023-03-29T17:01:19.646Z,14.25
2023-03-29T17:02:19.716Z,14.24
2023-03-29T17:03:19.795Z,14.21
2023-03-29T17:04:19.940Z,14.20
2023-03-29T17:05:19.935Z,14.17
2023-03-29T17:06:20.059Z,14.17
2023-03-29T17:07:20.122Z,14.14
2023-03-29T17:08:20.213Z,14.13
2023-03-29T17:09:20.295Z,14.12
2023-03-29T17:10:20.364Z,14.12
2023-03-29T17:11:20.492Z,14.10
2023-03-29T17:12:20.502Z,14.06
2023-03-29T17:13:20.608Z,14.04
2023-03-29T17:14:20.720Z,14.02
2023-03-29T17:15:20.811Z,14.01
2023-03-29T17:16:20.990Z,13.99
2023-03-29T17:17:20.954Z,13.99
2023-03-29T17:18:21.029Z,13.99
2023-03-29T17:19:21.117Z,13.99
2023-03-29T17:20:21.176Z,13.99
2023-03-29T17:21:21.257Z,13.98
2023-03-29T17:22:21.400Z,13.96
2023-03-29T17:23:21.392Z,13.96
2023-03-29T17:24:21.518Z,13.96
2023-03-29T17:25:21.575Z,13.96
2023-03-29T17:26:21.686Z,13.98
2023-03-29T17:27:21.747Z,13.98
2023-03-29T17:28:21.853Z,13.99
2023-03-29T17:29:21.972Z,13.99
2023-03-29T17:30:22.020Z,13.99
2023-03-29T17:31:22.157Z,13.98
2023-03-29T17:32:22.260Z,13.96
2023-03-29T17:33:22.849Z,13.94
2023-03-29T17:34:22.390Z,13.89
2023-03-29T17:35:22.453Z,13.88
2023-03-29T17:36:22.560Z,13.84
2023-03-29T17:37:22.654Z,13.84
2023-03-29T17:38:22.739Z,13.80
2023-03-29T17:39:22.834Z,13.74
2023-03-29T17:40:22.934Z,13.71
2023-03-29T17:41:23.029Z,13.70